Mauterndorf, Austria
Current Conditions -  °F | °C
As of 11:50 AM on Friday 19 Dec 2014 (Local Time) from LOWK Reporting Station
Moderate Fog Moderate Fog  
Wind Chill: 36°   Ceiling: Unl
Heat Index: 36°   Visibility: 0.5mi
Dew Point: 36°   Wind: 3mph
Humidity: 100%   Direction: 100°E
Pressure: 30.15"   Gusts: NA
Location:  47.13°N, 13.68°E
Report Text: LOWK 191050Z 10003KT 040V160 0800 R10/0450N R28/0650N FG SKC 02/02 Q1021 BECMG 9999 NSW
Loading
Personal Weather Stations






























Interactive Weather Map New forecast layout! Learn more

10-Day Weather Forecast

Advertisements
Track Severe Weather on mobile